Aviation Digital Data Service (ADDS)

Output produced by TAFs form (0205 UTC 19 July 2018)
found at http://www.aviationweather.gov/adds/tafs/
 
METAR text: ROIG 190100Z 04013KT 9999 FEW014 SCT020 BKN/// 30/27 Q1007
Conditions at: ROIG (ISHIGAKIJIMA ISL, JP) observed 0100 UTC 19 July 2018
Temperature: 30.0°C (86°F)
Dewpoint: 27.0°C (81°F) [RH = 84%]
Pressure (altimeter): 29.73 inches Hg (1007.0 mb)
Winds: from the NE (40 degrees) at 15 MPH (13 knots; 6.8 m/s)
Visibility: 6 or more miles (10+ km)
Ceiling: at least 12,000 feet AGL
Clouds: few clouds at 1400 feet AGL
scattered clouds at 2000 feet AGL
Weather: no significant weather observed at this time

Forecast for: ROIG (ISHIGAKIJIMA ISL, JP)
Text: TAF ROIG 182308Z 1900/2006 05012KT 9999 FEW015 SCT025
Forecast period: 0000 UTC 19 July 2018 to 0600 UTC 20 July 2018
Forecast type: FROM: standard forecast or significant change
Winds: from the NE (50 degrees) at 14 MPH (12 knots; 6.2 m/s)
Visibility: 6 or more miles (10+ km)
Clouds: few clouds at 1500 feet AGL
scattered clouds at 2500 feet AGL
Weather: no significant weather forecast for this period